sensor_id;sensor_type;location;lat;lon;timestamp;temperature;humidity
9179;DHT22;71287;48.414;11.478;2023-07-20T00:02:22;20.60;99.90
9179;DHT22;71287;48.414;11.478;2023-07-20T00:04:48;20.60;99.90
9179;DHT22;71287;48.414;11.478;2023-07-20T00:07:15;20.60;99.90
9179;DHT22;71287;48.414;11.478;2023-07-20T00:09:42;20.60;99.90
9179;DHT22;71287;48.414;11.478;2023-07-20T00:12:10;20.60;99.90
9179;DHT22;71287;48.414;11.478;2023-07-20T00:14:37;20.60;99.90
9179;DHT22;71287;48.414;11.478;2023-07-20T00:17:04;20.60;99.90
9179;DHT22;71287;48.414;11.478;2023-07-20T00:19:31;20.60;99.90
9179;DHT22;71287;48.414;11.478;2023-07-20T00:21:58;20.50;99.90
9179;DHT22;71287;48.414;11.478;2023-07-20T00:24:25;20.50;99.90
9179;DHT22;71287;48.414;11.478;2023-07-20T00:26:52;20.50;99.90
9179;DHT22;71287;48.414;11.478;2023-07-20T00:29:20;20.50;99.90
9179;DHT22;71287;48.414;11.478;2023-07-20T00:31:47;20.50;99.90
9179;DHT22;71287;48.414;11.478;2023-07-20T00:34:14;20.50;99.90
9179;DHT22;71287;48.414;11.478;2023-07-20T00:36:41;20.50;99.90
9179;DHT22;71287;48.414;11.478;2023-07-20T00:39:08;20.50;99.90
9179;DHT22;71287;48.414;11.478;2023-07-20T00:41:35;20.40;99.90
9179;DHT22;71287;48.414;11.478;2023-07-20T00:44:01;20.40;99.90
9179;DHT22;71287;48.414;11.478;2023-07-20T00:46:30;20.50;99.90
9179;DHT22;71287;48.414;11.478;2023-07-20T00:48:57;20.50;99.90
9179;DHT22;71287;48.414;11.478;2023-07-20T00:51:25;20.50;99.90
9179;DHT22;71287;48.414;11.478;2023-07-20T00:53:53;20.50;99.90
9179;DHT22;71287;48.414;11.478;2023-07-20T00:56:20;20.50;99.90
9179;DHT22;71287;48.414;11.478;2023-07-20T00:58:48;20.50;99.90
9179;DHT22;71287;48.414;11.478;2023-07-20T01:01:14;20.50;99.90
9179;DHT22;71287;48.414;11.478;2023-07-20T01:03:43;20.50;99.90
9179;DHT22;71287;48.414;11.478;2023-07-20T01:06:15;20.50;99.90
9179;DHT22;71287;48.414;11.478;2023-07-20T01:08:56;20.50;99.90
9179;DHT22;71287;48.414;11.478;2023-07-20T01:11:33;20.50;99.90
9179;DHT22;71287;48.414;11.478;2023-07-20T01:14:03;20.50;99.90
9179;DHT22;71287;48.414;11.478;2023-07-20T01:16:29;20.50;99.90
9179;DHT22;71287;48.414;11.478;2023-07-20T01:18:58;20.50;99.90
9179;DHT22;71287;48.414;11.478;2023-07-20T01:21:31;20.40;99.90
9179;DHT22;71287;48.414;11.478;2023-07-20T01:24:21;20.40;99.90
9179;DHT22;71287;48.414;11.478;2023-07-20T01:27:11;20.40;99.90
9179;DHT22;71287;48.414;11.478;2023-07-20T01:29:55;20.40;99.90
9179;DHT22;71287;48.414;11.478;2023-07-20T01:32:29;20.40;99.90
9179;DHT22;71287;48.414;11.478;2023-07-20T01:34:58;20.40;99.90
9179;DHT22;71287;48.414;11.478;2023-07-20T01:37:27;20.40;99.90
9179;DHT22;71287;48.414;11.478;2023-07-20T01:39:55;20.40;99.90
9179;DHT22;71287;48.414;11.478;2023-07-20T01:42:22;20.40;99.90
9179;DHT22;71287;48.414;11.478;2023-07-20T01:44:50;20.40;99.90
9179;DHT22;71287;48.414;11.478;2023-07-20T01:47:18;20.40;99.90
9179;DHT22;71287;48.414;11.478;2023-07-20T01:49:46;20.40;99.90
9179;DHT22;71287;48.414;11.478;2023-07-20T01:52:13;20.40;99.90
9179;DHT22;71287;48.414;11.478;2023-07-20T01:54:40;20.40;99.90
9179;DHT22;71287;48.414;11.478;2023-07-20T01:57:07;20.40;99.90
9179;DHT22;71287;48.414;11.478;2023-07-20T01:59:34;20.40;99.90
9179;DHT22;71287;48.414;11.478;2023-07-20T02:02:01;20.40;99.90
9179;DHT22;71287;48.414;11.478;2023-07-20T02:04:27;20.40;99.90
9179;DHT22;71287;48.414;11.478;2023-07-20T02:06:56;20.40;99.90
9179;DHT22;71287;48.414;11.478;2023-07-20T02:09:22;20.40;99.90
9179;DHT22;71287;48.414;11.478;2023-07-20T02:11:49;20.40;99.90
9179;DHT22;71287;48.414;11.478;2023-07-20T02:14:16;20.40;99.90
9179;DHT22;71287;48.414;11.478;2023-07-20T02:16:43;20.30;99.90
9179;DHT22;71287;48.414;11.478;2023-07-20T02:19:10;20.30;99.90
9179;DHT22;71287;48.414;11.478;2023-07-20T02:21:37;20.30;99.90
9179;DHT22;71287;48.414;11.478;2023-07-20T02:24:05;20.30;99.90
9179;DHT22;71287;48.414;11.478;2023-07-20T02:26:32;20.30;99.90
9179;DHT22;71287;48.414;11.478;2023-07-20T02:28:59;20.30;99.90
9179;DHT22;71287;48.414;11.478;2023-07-20T02:31:26;20.30;99.90
9179;DHT22;71287;48.414;11.478;2023-07-20T02:33:53;20.30;99.90
9179;DHT22;71287;48.414;11.478;2023-07-20T02:36:19;20.30;99.90
9179;DHT22;71287;48.414;11.478;2023-07-20T02:38:46;20.30;99.90
9179;DHT22;71287;48.414;11.478;2023-07-20T02:41:14;20.20;99.90
9179;DHT22;71287;48.414;11.478;2023-07-20T02:43:41;20.20;99.90
9179;DHT22;71287;48.414;11.478;2023-07-20T02:46:08;20.20;99.90
9179;DHT22;71287;48.414;11.478;2023-07-20T02:48:35;20.20;99.90
9179;DHT22;71287;48.414;11.478;2023-07-20T02:51:02;20.20;99.90
9179;DHT22;71287;48.414;11.478;2023-07-20T02:53:28;20.20;99.90
9179;DHT22;71287;48.414;11.478;2023-07-20T02:55:55;20.20;99.90
9179;DHT22;71287;48.414;11.478;2023-07-20T02:58:23;20.20;99.90
9179;DHT22;71287;48.414;11.478;2023-07-20T03:00:50;20.20;99.90
9179;DHT22;71287;48.414;11.478;2023-07-20T03:03:18;20.20;99.90
9179;DHT22;71287;48.414;11.478;2023-07-20T03:05:46;20.10;99.90
9179;DHT22;71287;48.414;11.478;2023-07-20T03:08:13;20.10;99.90
9179;DHT22;71287;48.414;11.478;2023-07-20T03:10:40;20.20;99.90
9179;DHT22;71287;48.414;11.478;2023-07-20T03:13:07;20.10;99.90
9179;DHT22;71287;48.414;11.478;2023-07-20T03:15:35;20.20;99.90
9179;DHT22;71287;48.414;11.478;2023-07-20T03:18:02;20.10;99.90
9179;DHT22;71287;48.414;11.478;2023-07-20T03:20:30;20.10;99.90
9179;DHT22;71287;48.414;11.478;2023-07-20T03:22:57;20.10;99.90
9179;DHT22;71287;48.414;11.478;2023-07-20T03:25:24;20.10;99.90
9179;DHT22;71287;48.414;11.478;2023-07-20T03:27:51;20.10;99.90
9179;DHT22;71287;48.414;11.478;2023-07-20T03:30:18;20.10;99.90
9179;DHT22;71287;48.414;11.478;2023-07-20T03:32:46;20.10;99.90
9179;DHT22;71287;48.414;11.478;2023-07-20T03:35:12;20.10;99.90
9179;DHT22;71287;48.414;11.478;2023-07-20T03:37:41;20.10;99.90
9179;DHT22;71287;48.414;11.478;2023-07-20T03:40:09;20.10;99.90
9179;DHT22;71287;48.414;11.478;2023-07-20T03:42:36;20.10;99.90
9179;DHT22;71287;48.414;11.478;2023-07-20T03:45:05;20.10;99.90
9179;DHT22;71287;48.414;11.478;2023-07-20T03:47:32;20.00;99.90
9179;DHT22;71287;48.414;11.478;2023-07-20T03:50:00;20.00;99.90
9179;DHT22;71287;48.414;11.478;2023-07-20T03:52:26;20.00;99.90
9179;DHT22;71287;48.414;11.478;2023-07-20T03:54:53;20.10;99.90
9179;DHT22;71287;48.414;11.478;2023-07-20T03:57:20;20.00;99.90
9179;DHT22;71287;48.414;11.478;2023-07-20T03:59:48;20.00;99.90
9179;DHT22;71287;48.414;11.478;2023-07-20T04:02:15;20.00;99.90
9179;DHT22;71287;48.414;11.478;2023-07-20T04:04:42;20.00;99.90
9179;DHT22;71287;48.414;11.478;2023-07-20T04:07:10;20.10;99.90
9179;DHT22;71287;48.414;11.478;2023-07-20T04:09:37;20.10;99.90
9179;DHT22;71287;48.414;11.478;2023-07-20T04:12:04;20.10;99.90
9179;DHT22;71287;48.414;11.478;2023-07-20T04:14:31;20.10;99.90
9179;DHT22;71287;48.414;11.478;2023-07-20T04:16:57;20.10;99.90
9179;DHT22;71287;48.414;11.478;2023-07-20T04:19:25;20.10;99.90
9179;DHT22;71287;48.414;11.478;2023-07-20T04:21:52;20.10;99.90
9179;DHT22;71287;48.414;11.478;2023-07-20T04:24:20;20.10;99.90
9179;DHT22;71287;48.414;11.478;2023-07-20T04:26:47;20.10;99.90
9179;DHT22;71287;48.414;11.478;2023-07-20T04:29:14;20.10;99.70
9179;DHT22;71287;48.414;11.478;2023-07-20T04:31:41;20.10;99.70
9179;DHT22;71287;48.414;11.478;2023-07-20T04:34:08;20.10;99.70
9179;DHT22;71287;48.414;11.478;2023-07-20T04:36:34;20.10;99.40
9179;DHT22;71287;48.414;11.478;2023-07-20T04:39:01;20.10;99.30
9179;DHT22;71287;48.414;11.478;2023-07-20T04:41:30;20.10;99.10
9179;DHT22;71287;48.414;11.478;2023-07-20T04:43:56;20.20;99.00
9179;DHT22;71287;48.414;11.478;2023-07-20T04:46:23;20.20;98.80
9179;DHT22;71287;48.414;11.478;2023-07-20T04:48:50;20.20;98.50
9179;DHT22;71287;48.414;11.478;2023-07-20T04:51:17;20.20;98.20
9179;DHT22;71287;48.414;11.478;2023-07-20T04:53:46;20.20;98.00
9179;DHT22;71287;48.414;11.478;2023-07-20T04:56:14;20.20;98.10
9179;DHT22;71287;48.414;11.478;2023-07-20T04:58:42;20.20;97.80
9179;DHT22;71287;48.414;11.478;2023-07-20T05:01:08;20.20;97.60
9179;DHT22;71287;48.414;11.478;2023-07-20T05:03:35;20.30;97.90
9179;DHT22;71287;48.414;11.478;2023-07-20T05:06:02;20.30;97.60
9179;DHT22;71287;48.414;11.478;2023-07-20T05:08:29;20.30;97.30
9179;DHT22;71287;48.414;11.478;2023-07-20T05:10:56;20.40;97.10
9179;DHT22;71287;48.414;11.478;2023-07-20T05:13:22;20.60;96.80
9179;DHT22;71287;48.414;11.478;2023-07-20T05:15:53;20.80;96.70
9179;DHT22;71287;48.414;11.478;2023-07-20T05:18:20;20.90;96.70
9179;DHT22;71287;48.414;11.478;2023-07-20T05:20:47;21.20;96.40
9179;DHT22;71287;48.414;11.478;2023-07-20T05:23:14;21.60;96.20
9179;DHT22;71287;48.414;11.478;2023-07-20T05:25:41;22.00;95.60
9179;DHT22;71287;48.414;11.478;2023-07-20T05:28:08;22.20;94.70
9179;DHT22;71287;48.414;11.478;2023-07-20T05:30:34;22.30;94.10
9179;DHT22;71287;48.414;11.478;2023-07-20T05:33:03;22.20;93.60
9179;DHT22;71287;48.414;11.478;2023-07-20T05:35:30;22.30;93.40
9179;DHT22;71287;48.414;11.478;2023-07-20T05:37:56;22.40;93.10
9179;DHT22;71287;48.414;11.478;2023-07-20T05:40:23;22.60;92.90
9179;DHT22;71287;48.414;11.478;2023-07-20T05:42:50;22.80;92.60
9179;DHT22;71287;48.414;11.478;2023-07-20T05:45:19;22.90;92.30
9179;DHT22;71287;48.414;11.478;2023-07-20T05:47:46;22.90;92.00
9179;DHT22;71287;48.414;11.478;2023-07-20T05:50:14;23.00;91.70
9179;DHT22;71287;48.414;11.478;2023-07-20T05:52:41;23.40;91.30
9179;DHT22;71287;48.414;11.478;2023-07-20T05:55:08;24.00;90.50
9179;DHT22;71287;48.414;11.478;2023-07-20T05:57:35;24.80;88.50
9179;DHT22;71287;48.414;11.478;2023-07-20T06:00:06;25.90;86.20
9179;DHT22;71287;48.414;11.478;2023-07-20T06:02:33;26.40;83.10
9179;DHT22;71287;48.414;11.478;2023-07-20T06:05:00;26.50;80.00
9179;DHT22;71287;48.414;11.478;2023-07-20T06:07:29;26.30;78.50
9179;DHT22;71287;48.414;11.478;2023-07-20T06:09:55;26.10;77.50
9179;DHT22;71287;48.414;11.478;2023-07-20T06:12:23;26.00;77.60
9179;DHT22;71287;48.414;11.478;2023-07-20T06:14:50;26.00;77.20
9179;DHT22;71287;48.414;11.478;2023-07-20T06:17:29;26.00;76.10
9179;DHT22;71287;48.414;11.478;2023-07-20T06:19:56;25.80;75.80
9179;DHT22;71287;48.414;11.478;2023-07-20T06:22:23;25.80;74.90
9179;DHT22;71287;48.414;11.478;2023-07-20T06:24:51;25.70;74.50
9179;DHT22;71287;48.414;11.478;2023-07-20T06:27:18;25.50;75.10
9179;DHT22;71287;48.414;11.478;2023-07-20T06:29:45;25.40;74.90
9179;DHT22;71287;48.414;11.478;2023-07-20T06:32:12;25.40;75.50
9179;DHT22;71287;48.414;11.478;2023-07-20T06:34:39;25.40;75.10
9179;DHT22;71287;48.414;11.478;2023-07-20T06:37:06;25.40;75.70
9179;DHT22;71287;48.414;11.478;2023-07-20T06:39:33;25.40;76.80
9179;DHT22;71287;48.414;11.478;2023-07-20T06:42:01;25.40;76.90
9179;DHT22;71287;48.414;11.478;2023-07-20T06:44:28;25.40;76.10
9179;DHT22;71287;48.414;11.478;2023-07-20T06:46:54;25.50;75.00
9179;DHT22;71287;48.414;11.478;2023-07-20T06:49:24;25.60;74.90
9179;DHT22;71287;48.414;11.478;2023-07-20T06:51:52;25.60;74.40
9179;DHT22;71287;48.414;11.478;2023-07-20T06:54:18;25.40;73.50
9179;DHT22;71287;48.414;11.478;2023-07-20T06:56:45;25.40;72.80
9179;DHT22;71287;48.414;11.478;2023-07-20T06:59:13;25.40;72.80
9179;DHT22;71287;48.414;11.478;2023-07-20T07:01:40;25.50;72.70
9179;DHT22;71287;48.414;11.478;2023-07-20T07:04:07;25.50;72.70
9179;DHT22;71287;48.414;11.478;2023-07-20T07:06:34;25.50;71.70
9179;DHT22;71287;48.414;11.478;2023-07-20T07:09:02;25.60;71.10
9179;DHT22;71287;48.414;11.478;2023-07-20T07:11:29;25.80;70.60
9179;DHT22;71287;48.414;11.478;2023-07-20T07:13:56;26.00;70.20
9179;DHT22;71287;48.414;11.478;2023-07-20T07:16:24;26.10;69.80
9179;DHT22;71287;48.414;11.478;2023-07-20T07:18:51;26.20;68.60
9179;DHT22;71287;48.414;11.478;2023-07-20T07:21:18;26.30;67.80
9179;DHT22;71287;48.414;11.478;2023-07-20T07:23:45;26.50;68.00
9179;DHT22;71287;48.414;11.478;2023-07-20T07:26:12;26.70;68.30
9179;DHT22;71287;48.414;11.478;2023-07-20T07:28:39;26.90;68.00
9179;DHT22;71287;48.414;11.478;2023-07-20T07:31:06;27.00;67.60
9179;DHT22;71287;48.414;11.478;2023-07-20T07:33:34;27.20;66.30
9179;DHT22;71287;48.414;11.478;2023-07-20T07:36:01;27.40;64.70
9179;DHT22;71287;48.414;11.478;2023-07-20T07:38:28;27.70;63.80
9179;DHT22;71287;48.414;11.478;2023-07-20T07:40:55;28.20;63.00
9179;DHT22;71287;48.414;11.478;2023-07-20T07:43:21;28.70;61.60
9179;DHT22;71287;48.414;11.478;2023-07-20T07:45:48;29.00;60.40
9179;DHT22;71287;48.414;11.478;2023-07-20T07:48:15;29.20;59.00
9179;DHT22;71287;48.414;11.478;2023-07-20T07:50:44;29.40;58.60
9179;DHT22;71287;48.414;11.478;2023-07-20T07:53:10;29.30;57.40
9179;DHT22;71287;48.414;11.478;2023-07-20T07:55:37;29.30;57.90
9179;DHT22;71287;48.414;11.478;2023-07-20T07:58:04;29.30;57.50
9179;DHT22;71287;48.414;11.478;2023-07-20T08:00:31;29.00;57.50
9179;DHT22;71287;48.414;11.478;2023-07-20T08:02:58;29.00;57.90
9179;DHT22;71287;48.414;11.478;2023-07-20T08:05:24;29.00;57.00
9179;DHT22;71287;48.414;11.478;2023-07-20T08:07:53;29.00;57.00
9179;DHT22;71287;48.414;11.478;2023-07-20T08:10:20;29.20;56.60
9179;DHT22;71287;48.414;11.478;2023-07-20T08:12:46;29.40;56.30
9179;DHT22;71287;48.414;11.478;2023-07-20T08:15:13;29.60;56.10
9179;DHT22;71287;48.414;11.478;2023-07-20T08:17:41;30.10;54.70
9179;DHT22;71287;48.414;11.478;2023-07-20T08:20:09;30.50;54.00
9179;DHT22;71287;48.414;11.478;2023-07-20T08:22:37;31.30;53.50
9179;DHT22;71287;48.414;11.478;2023-07-20T08:25:06;31.50;52.60
9179;DHT22;71287;48.414;11.478;2023-07-20T08:27:34;31.80;51.30
9179;DHT22;71287;48.414;11.478;2023-07-20T08:30:01;32.10;50.80
9179;DHT22;71287;48.414;11.478;2023-07-20T08:32:28;32.00;50.90
9179;DHT22;71287;48.414;11.478;2023-07-20T08:34:54;31.80;50.80
9179;DHT22;71287;48.414;11.478;2023-07-20T08:37:22;31.80;50.80
9179;DHT22;71287;48.414;11.478;2023-07-20T08:39:49;32.00;50.20
9179;DHT22;71287;48.414;11.478;2023-07-20T08:42:17;32.80;49.10
9179;DHT22;71287;48.414;11.478;2023-07-20T08:44:45;33.50;46.90
9179;DHT22;71287;48.414;11.478;2023-07-20T08:47:16;33.40;46.10
9179;DHT22;71287;48.414;11.478;2023-07-20T08:49:43;33.10;46.10
9179;DHT22;71287;48.414;11.478;2023-07-20T08:52:10;32.90;47.20
9179;DHT22;71287;48.414;11.478;2023-07-20T08:54:38;32.80;48.20
9179;DHT22;71287;48.414;11.478;2023-07-20T08:57:06;32.70;48.30
9179;DHT22;71287;48.414;11.478;2023-07-20T08:59:36;32.50;48.00
9179;DHT22;71287;48.414;11.478;2023-07-20T09:02:05;32.30;47.50
9179;DHT22;71287;48.414;11.478;2023-07-20T09:04:34;32.10;47.40
9179;DHT22;71287;48.414;11.478;2023-07-20T09:07:02;31.90;46.60
9179;DHT22;71287;48.414;11.478;2023-07-20T09:09:28;31.70;46.80
9179;DHT22;71287;48.414;11.478;2023-07-20T09:11:55;31.60;47.50
9179;DHT22;71287;48.414;11.478;2023-07-20T09:14:23;31.60;47.10
9179;DHT22;71287;48.414;11.478;2023-07-20T09:16:53;31.50;48.20
9179;DHT22;71287;48.414;11.478;2023-07-20T09:19:20;31.50;47.80
9179;DHT22;71287;48.414;11.478;2023-07-20T09:21:49;31.60;47.20
9179;DHT22;71287;48.414;11.478;2023-07-20T09:24:17;31.70;47.50
9179;DHT22;71287;48.414;11.478;2023-07-20T09:26:46;31.80;47.70
9179;DHT22;71287;48.414;11.478;2023-07-20T09:29:14;31.80;47.60
9179;DHT22;71287;48.414;11.478;2023-07-20T09:31:40;31.90;48.10
9179;DHT22;71287;48.414;11.478;2023-07-20T09:34:09;31.80;47.30
9179;DHT22;71287;48.414;11.478;2023-07-20T09:36:36;31.60;46.60
9179;DHT22;71287;48.414;11.478;2023-07-20T09:39:03;31.40;47.20
9179;DHT22;71287;48.414;11.478;2023-07-20T09:41:39;31.40;47.40
9179;DHT22;71287;48.414;11.478;2023-07-20T09:44:07;31.30;47.20
9179;DHT22;71287;48.414;11.478;2023-07-20T09:46:42;31.30;48.00
9179;DHT22;71287;48.414;11.478;2023-07-20T09:49:10;31.30;48.00
9179;DHT22;71287;48.414;11.478;2023-07-20T09:51:37;31.20;49.10
9179;DHT22;71287;48.414;11.478;2023-07-20T09:54:04;31.40;49.40
9179;DHT22;71287;48.414;11.478;2023-07-20T09:56:33;31.50;48.90
9179;DHT22;71287;48.414;11.478;2023-07-20T09:59:00;31.40;47.90
9179;DHT22;71287;48.414;11.478;2023-07-20T10:01:27;31.50;47.90
9179;DHT22;71287;48.414;11.478;2023-07-20T10:03:58;31.60;47.30
9179;DHT22;71287;48.414;11.478;2023-07-20T10:06:29;31.50;47.40
9179;DHT22;71287;48.414;11.478;2023-07-20T10:09:00;31.40;47.00
9179;DHT22;71287;48.414;11.478;2023-07-20T10:11:30;31.30;47.70
9179;DHT22;71287;48.414;11.478;2023-07-20T10:13:59;31.10;47.50
9179;DHT22;71287;48.414;11.478;2023-07-20T10:16:29;31.10;48.00
9179;DHT22;71287;48.414;11.478;2023-07-20T10:19:02;30.90;48.20
9179;DHT22;71287;48.414;11.478;2023-07-20T10:21:33;30.60;48.90
9179;DHT22;71287;48.414;11.478;2023-07-20T10:24:01;30.50;49.90
9179;DHT22;71287;48.414;11.478;2023-07-20T10:26:28;30.50;49.70
9179;DHT22;71287;48.414;11.478;2023-07-20T10:28:56;30.50;49.70
9179;DHT22;71287;48.414;11.478;2023-07-20T10:31:24;30.70;50.20
9179;DHT22;71287;48.414;11.478;2023-07-20T10:33:55;30.80;48.80
9179;DHT22;71287;48.414;11.478;2023-07-20T10:36:25;30.70;48.30
9179;DHT22;71287;48.414;11.478;2023-07-20T10:38:55;30.50;47.90
9179;DHT22;71287;48.414;11.478;2023-07-20T10:41:27;30.20;48.00
9179;DHT22;71287;48.414;11.478;2023-07-20T10:43:58;29.90;48.70
9179;DHT22;71287;48.414;11.478;2023-07-20T10:46:41;29.80;48.70
9179;DHT22;71287;48.414;11.478;2023-07-20T10:49:09;29.70;49.20
9179;DHT22;71287;48.414;11.478;2023-07-20T10:51:40;29.60;49.30
9179;DHT22;71287;48.414;11.478;2023-07-20T10:54:34;29.60;49.80
9179;DHT22;71287;48.414;11.478;2023-07-20T10:57:22;29.40;50.10
9179;DHT22;71287;48.414;11.478;2023-07-20T10:59:49;29.20;50.00
9179;DHT22;71287;48.414;11.478;2023-07-20T11:02:18;29.10;49.70
9179;DHT22;71287;48.414;11.478;2023-07-20T11:04:47;29.00;50.10
9179;DHT22;71287;48.414;11.478;2023-07-20T11:10:14;28.90;51.60
9179;DHT22;71287;48.414;11.478;2023-07-20T11:12:41;28.90;52.30
9179;DHT22;71287;48.414;11.478;2023-07-20T11:15:44;28.90;51.60
9179;DHT22;71287;48.414;11.478;2023-07-20T11:18:12;28.70;50.90
9179;DHT22;71287;48.414;11.478;2023-07-20T11:20:39;28.60;51.90
9179;DHT22;71287;48.414;11.478;2023-07-20T11:23:07;28.50;52.30
9179;DHT22;71287;48.414;11.478;2023-07-20T11:25:39;28.50;52.20
9179;DHT22;71287;48.414;11.478;2023-07-20T11:28:07;28.40;52.50
9179;DHT22;71287;48.414;11.478;2023-07-20T11:30:36;28.60;53.20
9179;DHT22;71287;48.414;11.478;2023-07-20T11:33:03;28.70;52.40
9179;DHT22;71287;48.414;11.478;2023-07-20T11:35:30;28.80;52.40
9179;DHT22;71287;48.414;11.478;2023-07-20T11:37:57;29.00;53.30
9179;DHT22;71287;48.414;11.478;2023-07-20T11:40:24;29.20;53.60
9179;DHT22;71287;48.414;11.478;2023-07-20T11:42:53;29.40;53.60
9179;DHT22;71287;48.414;11.478;2023-07-20T11:45:20;29.40;52.10
9179;DHT22;71287;48.414;11.478;2023-07-20T11:47:46;29.30;52.50
9179;DHT22;71287;48.414;11.478;2023-07-20T11:50:13;29.40;53.30
9179;DHT22;71287;48.414;11.478;2023-07-20T11:52:41;29.40;52.40
9179;DHT22;71287;48.414;11.478;2023-07-20T11:55:08;29.40;52.70
9179;DHT22;71287;48.414;11.478;2023-07-20T11:57:36;29.30;52.40
9179;DHT22;71287;48.414;11.478;2023-07-20T12:00:07;29.20;52.00
9179;DHT22;71287;48.414;11.478;2023-07-20T12:02:38;29.20;51.70
9179;DHT22;71287;48.414;11.478;2023-07-20T12:05:06;29.30;51.80
9179;DHT22;71287;48.414;11.478;2023-07-20T12:07:35;29.50;52.20
9179;DHT22;71287;48.414;11.478;2023-07-20T12:10:06;29.60;52.70
9179;DHT22;71287;48.414;11.478;2023-07-20T12:12:34;29.70;52.50
9179;DHT22;71287;48.414;11.478;2023-07-20T12:15:19;29.70;53.00
9179;DHT22;71287;48.414;11.478;2023-07-20T12:17:46;29.80;52.80
9179;DHT22;71287;48.414;11.478;2023-07-20T12:20:25;30.00;52.20
9179;DHT22;71287;48.414;11.478;2023-07-20T12:22:52;30.10;51.20
9179;DHT22;71287;48.414;11.478;2023-07-20T12:25:19;30.30;51.70
9179;DHT22;71287;48.414;11.478;2023-07-20T12:27:48;30.40;50.60
9179;DHT22;71287;48.414;11.478;2023-07-20T12:30:15;30.30;49.60
9179;DHT22;71287;48.414;11.478;2023-07-20T12:32:43;30.30;49.50
9179;DHT22;71287;48.414;11.478;2023-07-20T12:35:10;30.30;50.40
9179;DHT22;71287;48.414;11.478;2023-07-20T12:37:40;30.30;50.70
9179;DHT22;71287;48.414;11.478;2023-07-20T12:40:08;30.30;49.90
9179;DHT22;71287;48.414;11.478;2023-07-20T12:42:36;30.20;49.50
9179;DHT22;71287;48.414;11.478;2023-07-20T12:45:04;30.20;49.20
9179;DHT22;71287;48.414;11.478;2023-07-20T12:47:31;30.00;49.00
9179;DHT22;71287;48.414;11.478;2023-07-20T12:49:59;29.90;49.40
9179;DHT22;71287;48.414;11.478;2023-07-20T12:52:26;29.80;49.90
9179;DHT22;71287;48.414;11.478;2023-07-20T12:54:53;29.80;49.60
9179;DHT22;71287;48.414;11.478;2023-07-20T12:57:20;29.80;49.80
9179;DHT22;71287;48.414;11.478;2023-07-20T12:59:46;29.90;50.60
9179;DHT22;71287;48.414;11.478;2023-07-20T13:02:13;29.90;50.60
9179;DHT22;71287;48.414;11.478;2023-07-20T13:04:40;29.90;51.30
9179;DHT22;71287;48.414;11.478;2023-07-20T13:07:10;29.90;50.60
9179;DHT22;71287;48.414;11.478;2023-07-20T13:09:37;29.90;51.80
9179;DHT22;71287;48.414;11.478;2023-07-20T13:12:04;29.80;51.10
9179;DHT22;71287;48.414;11.478;2023-07-20T13:14:31;29.60;51.10
9179;DHT22;71287;48.414;11.478;2023-07-20T13:16:58;29.60;51.80
9179;DHT22;71287;48.414;11.478;2023-07-20T13:19:24;29.50;52.40
9179;DHT22;71287;48.414;11.478;2023-07-20T13:21:52;29.50;51.70
9179;DHT22;71287;48.414;11.478;2023-07-20T13:24:20;29.40;51.70
9179;DHT22;71287;48.414;11.478;2023-07-20T13:26:46;29.20;50.70
9179;DHT22;71287;48.414;11.478;2023-07-20T13:29:13;29.10;51.60
9179;DHT22;71287;48.414;11.478;2023-07-20T13:31:40;29.00;52.70
9179;DHT22;71287;48.414;11.478;2023-07-20T13:34:07;29.00;52.00
9179;DHT22;71287;48.414;11.478;2023-07-20T13:36:34;29.00;52.60
9179;DHT22;71287;48.414;11.478;2023-07-20T13:39:00;29.10;52.60
9179;DHT22;71287;48.414;11.478;2023-07-20T13:41:31;29.10;52.30
9179;DHT22;71287;48.414;11.478;2023-07-20T13:43:58;29.00;51.50
9179;DHT22;71287;48.414;11.478;2023-07-20T13:46:25;29.00;51.90
9179;DHT22;71287;48.414;11.478;2023-07-20T13:48:52;29.00;53.00
9179;DHT22;71287;48.414;11.478;2023-07-20T13:51:19;29.00;52.40
9179;DHT22;71287;48.414;11.478;2023-07-20T13:53:45;29.00;53.20
9179;DHT22;71287;48.414;11.478;2023-07-20T13:56:12;29.00;52.60
9179;DHT22;71287;48.414;11.478;2023-07-20T13:58:40;29.00;53.00
9179;DHT22;71287;48.414;11.478;2023-07-20T14:01:08;28.90;52.50
9179;DHT22;71287;48.414;11.478;2023-07-20T14:03:34;28.80;51.90
9179;DHT22;71287;48.414;11.478;2023-07-20T14:06:02;28.60;51.40
9179;DHT22;71287;48.414;11.478;2023-07-20T14:08:29;28.40;51.60
9179;DHT22;71287;48.414;11.478;2023-07-20T14:10:56;28.40;51.40
9179;DHT22;71287;48.414;11.478;2023-07-20T14:13:22;28.40;52.10
9179;DHT22;71287;48.414;11.478;2023-07-20T14:15:51;28.50;53.00
9179;DHT22;71287;48.414;11.478;2023-07-20T14:18:17;28.50;51.60
9179;DHT22;71287;48.414;11.478;2023-07-20T14:20:44;28.60;51.10
9179;DHT22;71287;48.414;11.478;2023-07-20T14:23:11;28.50;51.80
9179;DHT22;71287;48.414;11.478;2023-07-20T14:25:38;28.40;51.70
9179;DHT22;71287;48.414;11.478;2023-07-20T14:28:05;28.30;52.00
9179;DHT22;71287;48.414;11.478;2023-07-20T14:30:32;28.10;50.60
9179;DHT22;71287;48.414;11.478;2023-07-20T14:33:00;28.10;51.30
9179;DHT22;71287;48.414;11.478;2023-07-20T14:35:27;27.90;50.60
9179;DHT22;71287;48.414;11.478;2023-07-20T14:37:54;27.80;50.60
9179;DHT22;71287;48.414;11.478;2023-07-20T14:40:21;27.70;50.80
9179;DHT22;71287;48.414;11.478;2023-07-20T14:42:48;27.70;51.10
9179;DHT22;71287;48.414;11.478;2023-07-20T14:45:14;27.60;51.30
9179;DHT22;71287;48.414;11.478;2023-07-20T14:47:41;27.70;51.40
9179;DHT22;71287;48.414;11.478;2023-07-20T14:50:10;27.70;50.60
9179;DHT22;71287;48.414;11.478;2023-07-20T14:52:37;27.60;50.70
9179;DHT22;71287;48.414;11.478;2023-07-20T14:55:04;27.60;50.00
9179;DHT22;71287;48.414;11.478;2023-07-20T14:57:31;27.50;50.50
9179;DHT22;71287;48.414;11.478;2023-07-20T14:59:58;27.50;51.10
9179;DHT22;71287;48.414;11.478;2023-07-20T15:02:25;27.50;51.00
9179;DHT22;71287;48.414;11.478;2023-07-20T15:04:52;27.50;50.90
9179;DHT22;71287;48.414;11.478;2023-07-20T15:07:21;27.50;51.00
9179;DHT22;71287;48.414;11.478;2023-07-20T15:09:48;27.50;51.20
9179;DHT22;71287;48.414;11.478;2023-07-20T15:12:15;27.50;50.40
9179;DHT22;71287;48.414;11.478;2023-07-20T15:14:43;27.50;49.60
9179;DHT22;71287;48.414;11.478;2023-07-20T15:17:10;27.40;49.90
9179;DHT22;71287;48.414;11.478;2023-07-20T15:19:37;27.40;49.40
9179;DHT22;71287;48.414;11.478;2023-07-20T15:22:04;27.30;49.70
9179;DHT22;71287;48.414;11.478;2023-07-20T15:24:35;27.10;49.90
9179;DHT22;71287;48.414;11.478;2023-07-20T15:27:02;27.00;50.40
9179;DHT22;71287;48.414;11.478;2023-07-20T15:29:29;26.90;50.70
9179;DHT22;71287;48.414;11.478;2023-07-20T15:31:56;26.80;50.30
9179;DHT22;71287;48.414;11.478;2023-07-20T15:34:23;26.80;50.20
9179;DHT22;71287;48.414;11.478;2023-07-20T15:36:49;26.80;49.70
9179;DHT22;71287;48.414;11.478;2023-07-20T15:39:16;26.80;49.90